4XHPO LLMG-LLIB

Flight info

Callsign 4XHPO
Flight time 0h 22m
Altitude 1000
Route LSA ROUTES
Aircraft SVNH/L-V/N

Departure

Time 2026-05-01 10:52
Airport Megiddo Airport (LLMG)

Arrival

Time 2026-05-01 11:15
Airport Rosh Pina Airport (LLIB)
Time Latitude Longitude Altitude Speed Heading
2026-05-01 10:27 32.59606 35.23502 186 ft 0 kts 355°
2026-05-01 10:31 32.59533 35.23546 189 ft 0 kts 60°
2026-05-01 10:49 32.59549 35.23556 187 ft 5 kts 346°
2026-05-01 10:50 32.59571 35.23544 191 ft 13 kts 323°
2026-05-01 10:50 32.59697 35.23507 180 ft 20 kts 77°
2026-05-01 10:50 32.59695 35.23772 176 ft 41 kts 90°
2026-05-01 10:50 32.59695 35.23992 174 ft 8 kts 288°
2026-05-01 10:51 32.59695 35.23784 190 ft 45 kts 278°
2026-05-01 10:51 32.59704 35.23376 307 ft 55 kts 279°
2026-05-01 10:51 32.59720 35.22901 411 ft 60 kts 284°
2026-05-01 10:51 32.59733 35.22376 463 ft 69 kts 283°
2026-05-01 10:52 32.59770 35.21815 624 ft 68 kts 279°
2026-05-01 10:52 32.59569 35.21229 785 ft 85 kts 242°
2026-05-01 10:52 32.59116 35.20732 981 ft 93 kts 223°
2026-05-01 10:52 32.58474 35.20513 1127 ft 100 kts 182°
2026-05-01 10:53 32.57803 35.20493 1288 ft 92 kts 179°
2026-05-01 10:53 32.57241 35.20789 1458 ft 93 kts 128°
2026-05-01 10:53 32.56975 35.21530 1580 ft 100 kts 107°
2026-05-01 10:53 32.56896 35.22361 1707 ft 104 kts 97°
2026-05-01 10:54 32.56740 35.23219 1769 ft 108 kts 98°
2026-05-01 10:54 32.56730 35.24123 1819 ft 111 kts 88°
2026-05-01 10:54 32.56805 35.25026 1716 ft 109 kts 71°
2026-05-01 10:54 32.57158 35.25820 1566 ft 107 kts 60°
2026-05-01 10:55 32.57516 35.26561 1547 ft 99 kts 59°
2026-05-01 10:55 32.57859 35.27247 1561 ft 96 kts 58°
2026-05-01 10:55 32.58200 35.27927 1692 ft 96 kts 60°
2026-05-01 10:55 32.58509 35.28642 1838 ft 100 kts 63°
2026-05-01 10:56 32.58819 35.29391 1955 ft 102 kts 64°
2026-05-01 10:56 32.59111 35.30120 1960 ft 96 kts 64°
2026-05-01 10:56 32.59419 35.30842 1924 ft 97 kts 54°
2026-05-01 10:56 32.59904 35.31376 1925 ft 94 kts 34°
2026-05-01 10:57 32.60461 35.31778 1896 ft 95 kts 24°
2026-05-01 10:57 32.61052 35.32103 1924 ft 93 kts 24°
2026-05-01 10:57 32.61629 35.32440 1907 ft 95 kts 26°
2026-05-01 10:57 32.62211 35.32796 1915 ft 94 kts 26°
2026-05-01 10:58 32.62784 35.33156 1907 ft 93 kts 26°
2026-05-01 10:58 32.63365 35.33500 1892 ft 94 kts 26°
2026-05-01 10:58 32.63942 35.33860 1913 ft 93 kts 25°
2026-05-01 10:58 32.64527 35.34186 1933 ft 93 kts 24°
2026-05-01 10:59 32.65114 35.34508 1946 ft 94 kts 22°
2026-05-01 10:59 32.65715 35.34816 1958 ft 94 kts 22°
2026-05-01 10:59 32.66306 35.35142 1947 ft 93 kts 25°
2026-05-01 10:59 32.66886 35.35481 1977 ft 93 kts 25°
2026-05-01 11:00 32.67470 35.35832 1956 ft 95 kts 27°
2026-05-01 11:00 32.68031 35.36207 1995 ft 93 kts 30°
2026-05-01 11:00 32.68586 35.36596 2029 ft 92 kts 31°
2026-05-01 11:00 32.69058 35.37104 2008 ft 95 kts 45°
2026-05-01 11:01 32.69532 35.37656 2004 ft 94 kts 41°
2026-05-01 11:01 32.70032 35.38154 2001 ft 94 kts 36°
2026-05-01 11:01 32.70557 35.38618 2006 ft 93 kts 38°
2026-05-01 11:01 32.71059 35.39111 1997 ft 94 kts 39°
2026-05-01 11:02 32.71565 35.39602 1982 ft 94 kts 38°
2026-05-01 11:02 32.72078 35.40083 1977 ft 94 kts 37°
2026-05-01 11:02 32.72588 35.40567 1963 ft 94 kts 39°
2026-05-01 11:02 32.73083 35.41062 1970 ft 94 kts 39°
2026-05-01 11:03 32.73574 35.41568 1959 ft 94 kts 41°
2026-05-01 11:03 32.74051 35.42097 1948 ft 93 kts 42°
2026-05-01 11:03 32.74531 35.42622 1924 ft 94 kts 43°
2026-05-01 11:03 32.74998 35.43166 1926 ft 93 kts 44°
2026-05-01 11:04 32.75435 35.43687 1988 ft 88 kts 44°
2026-05-01 11:04 32.75868 35.44208 2015 ft 88 kts 44°
2026-05-01 11:04 32.76298 35.44734 1988 ft 90 kts 45°
2026-05-01 11:04 32.76730 35.45269 2012 ft 88 kts 45°
2026-05-01 11:05 32.77163 35.45794 2033 ft 89 kts 43°
2026-05-01 11:05 32.77619 35.46309 2044 ft 92 kts 41°
2026-05-01 11:05 32.78110 35.46817 1993 ft 97 kts 39°
2026-05-01 11:05 32.78627 35.47333 1988 ft 97 kts 37°
2026-05-01 11:06 32.79154 35.47817 1999 ft 94 kts 34°
2026-05-01 11:06 32.79705 35.48252 1982 ft 96 kts 34°
2026-05-01 11:06 32.80245 35.48722 1992 ft 96 kts 36°
2026-05-01 11:07 32.81302 35.49656 1976 ft 94 kts 34°
2026-05-01 11:07 32.81842 35.50115 1980 ft 95 kts 34°
2026-05-01 11:07 32.82392 35.50544 1997 ft 95 kts 25°
2026-05-01 11:07 32.83003 35.50865 1995 ft 96 kts 20°
2026-05-01 11:08 32.83634 35.51132 1957 ft 96 kts 23°
2026-05-01 11:08 32.84214 35.51500 2010 ft 93 kts 30°
2026-05-01 11:08 32.85323 35.52393 2018 ft 98 kts 34°
2026-05-01 11:09 32.85905 35.52800 2078 ft 98 kts 23°
2026-05-01 11:09 32.86548 35.53107 2053 ft 102 kts 17°
2026-05-01 11:09 32.87244 35.53291 2035 ft 104 kts 10°
2026-05-01 11:10 32.88650 35.53647 1987 ft 99 kts
2026-05-01 11:10 32.89341 35.53780 1950 ft 101 kts
2026-05-01 11:10 32.90018 35.53924 1928 ft 97 kts
2026-05-01 11:10 32.90653 35.54054 1998 ft 89 kts
2026-05-01 11:11 32.91237 35.54265 2028 ft 89 kts 30°
2026-05-01 11:11 32.91712 35.54764 2007 ft 93 kts 44°
2026-05-01 11:11 32.92155 35.55343 1968 ft 96 kts 46°
2026-05-01 11:11 32.92618 35.55906 2029 ft 94 kts 43°
2026-05-01 11:12 32.93098 35.56449 1949 ft 93 kts 43°
2026-05-01 11:12 32.93548 35.56991 1816 ft 93 kts 45°
2026-05-01 11:12 32.93970 35.57558 1720 ft 92 kts 48°
2026-05-01 11:12 32.94394 35.58145 1712 ft 94 kts 48°
2026-05-01 11:13 32.94822 35.58720 1720 ft 94 kts 45°
2026-05-01 11:13 32.95327 35.59231 1701 ft 96 kts 34°
2026-05-01 11:13 32.95911 35.59533 1632 ft 86 kts 352°
2026-05-01 11:13 32.96278 35.59091 1446 ft 73 kts 289°
2026-05-01 11:14 32.96493 35.58571 1333 ft 69 kts 304°
2026-05-01 11:14 32.96803 35.58128 1250 ft 67 kts 317°
2026-05-01 11:14 32.97183 35.57811 1153 ft 67 kts 328°
2026-05-01 11:14 32.97585 35.57537 1035 ft 66 kts 330°
2026-05-01 11:15 32.97967 35.57278 890 ft 56 kts 329°
2026-05-01 11:15 32.98231 35.57101 888 ft 31 kts 334°
2026-05-01 11:15 32.98331 35.57008 887 ft 10 kts 209°
2026-05-01 11:15 32.98305 35.57030 886 ft 16 kts 132°
2026-05-01 11:16 32.98123 35.57173 890 ft 45 kts 149°
2026-05-01 11:16 32.97881 35.57355 889 ft 28 kts 114°
2026-05-01 11:16 32.97949 35.57424 887 ft 16 kts 42°
2026-05-01 11:16 32.97971 35.57483 880 ft 0 kts 275°